Aérodrome :
LOGIN :

S'inscrire | Disclaimer

   EN    FR    IT 

 










Légende :    VFR   VFR Marginal   IFR   IFR Intensif   IFR Très Intensif
Visi : 
Plafond : 
>= 8 km
>= 3000ft
5 à 8 km
1000 à 3000 ft
1500m à 5 km
500 à 1000 ft
800 à 1500m
200 à 500 ft
< 800m
< 200 ft
Symboles :   Orages  Brouillard  Fortes neiges  Fortes précipitations  Vent > 20 kt
SIGMETs :   Divers  Orages  Givrage  Turbulence  Onde Orograph.  Cendres Volcan.






- Altitude de l'aérodrome : 299 ft
- Code IATA : EDM


LFRI - La Roche Sur Yon - Les Ajoncs

DERNIER METAR :
  • 272230Z AUTO 23015KT 9999 ///TCU 10/06 Q1005

METARs EXPIRÉS :
  • 272200Z AUTO 24013G25KT 9999 ///CB 10/06 Q1005
  • 272130Z AUTO 21009KT 9999 SCT017 SCT028 BKN084 09/07 Q1005
  • 272100Z AUTO 22012KT 9999 FEW028/// SCT150/// BKN190/// ///TCU 09/06 Q1005 TEMPO 25020G30KT 3000 SHRA BKN020TCU SCT030CB
  • 272030Z AUTO 22012KT 9999 FEW021/// BKN078/// BKN092/// ///CB 10/08 Q1005 TEMPO 25020G30KT 3000 SHRA
  • 272000Z AUTO 22010KT 9999 BKN021 OVC120 10/08 Q1005 TEMPO 25020G30KT 3000 SHRA BKN020TCU SCT030CB

TAF TAF LFRI
Valide du 27 à 18h jusqu'au 28 à 18h UTC


271700Z 2718/2818 22010KT 9999 SCT020
TEMPO 2718/2818 3000 SHRA BKN020TCU SCT030CB
TEMPO 2721/2818 25020G30KT
TEMPO 2723/2801 25025G50KT
PROB30
TEMPO 2815/2817 27024G45KT



MET'MAP, la Météo Aéronautique d'un coup d'oeil ! - Copyright ORBIFLY Décembre 2007 - Disclaimer

ORBIFLY MET'MAP TEAM :

Programmation & Développement : Alexandra Zaïnal
Sur une idée originale de : Baudouin d'Aumeries
Assistance à la programmation : Marc-Olivier Méhu
Soutien technique & logistique : Manuel Goepfert

Contact : metmap@orbifly.com




SOURCES & CREDITS :

   NOAA